Time;durP1;ratioP1;P1;durP2;ratioP2;P2;SDS_P1;SDS_P2;PMS_P1;PMS_P2;Temp;Humidity;BMP_temperature;BMP_pressure;BME280_temperature;BME280_humidity;BME280_pressure;Samples;Min_cycle;Max_cycle;Signal;HPM_P1;HPM_P2
2022/11/16 00:03:03;;;;;;;55.40;34.90;;;;;;;10.80;71.75;98242.92;226543;1238;139344;-64
2022/11/16 00:08:06;;;;;;;51.40;35.00;;;;;;;10.81;72.40;98243.38;227018;1240;139697;-63
2022/11/16 00:13:09;;;;;;;58.30;38.40;;;;;;;10.87;72.21;98242.52;226716;1244;138824;-63
2022/11/16 00:18:12;;;;;;;58.20;38.60;;;;;;;10.89;72.09;98237.21;227618;1234;139282;-63
2022/11/16 00:23:16;;;;;;;60.10;39.60;;;;;;;10.92;71.85;98236.16;226446;1237;138316;-63
2022/11/16 00:28:19;;;;;;;58.80;38.70;;;;;;;10.90;71.96;98235.38;226460;1238;138843;-63
2022/11/16 00:33:22;;;;;;;57.60;37.90;;;;;;;10.87;72.30;98232.42;227654;1241;139629;-63
2022/11/16 00:38:25;;;;;;;50.30;35.00;;;;;;;10.85;72.37;98233.50;226477;1244;139201;-62
2022/11/16 00:43:29;;;;;;;52.70;35.00;;;;;;;10.83;72.77;98228.95;227693;1234;139172;-63
2022/11/16 00:48:32;;;;;;;58.50;37.90;;;;;;;10.86;72.93;98230.88;226304;1241;139001;-63
2022/11/16 00:53:36;;;;;;;54.80;37.50;;;;;;;10.91;73.10;98229.64;226785;1240;138491;-64
2022/11/16 00:58:39;;;;;;;57.50;37.90;;;;;;;10.89;72.64;98229.59;226407;1241;138921;-64
2022/11/16 01:03:44;;;;;;;56.30;37.80;;;;;;;10.84;72.42;98220.79;227324;1248;139321;-64
2022/11/16 01:08:47;;;;;;;62.10;37.70;;;;;;;10.84;72.54;98218.47;226453;1237;138730;-64
2022/11/16 01:13:51;;;;;;;59.40;35.90;;;;;;;10.82;72.81;98219.34;226345;1255;138798;-64
2022/11/16 01:18:54;;;;;;;54.40;35.80;;;;;;;10.80;72.81;98220.02;226373;1233;139905;-64
2022/11/16 01:23:57;;;;;;;58.70;37.20;;;;;;;10.83;72.77;98218.16;226288;1237;139178;-63
2022/11/16 01:29:01;;;;;;;55.90;37.60;;;;;;;10.85;72.79;98217.67;227450;1237;139444;-64
2022/11/16 01:34:08;;;;;;;59.20;39.70;;;;;;;10.87;72.89;98204.07;226146;1237;139173;-63
2022/11/16 01:39:12;;;;;;;60.30;39.60;;;;;;;10.86;72.84;98192.54;226641;1240;138955;-64
2022/11/16 01:44:31;;;;;;;60.90;41.40;;;;;;;10.85;72.67;98181.63;226641;1241;139805;-64
2022/11/16 01:49:50;;;;;;;58.00;35.40;;;;;;;10.84;73.02;98174.25;227453;1247;139968;-65
2022/11/16 01:54:56;;;;;;;51.70;35.60;;;;;;;10.85;72.98;98171.22;227716;1245;140411;-65
2022/11/16 02:00:05;;;;;;;61.20;37.90;;;;;;;10.87;73.05;98163.58;226291;1252;140108;-65
2022/11/16 02:05:32;;;;;;;55.70;38.80;;;;;;;10.90;73.32;98164.20;226473;1255;138965;-64
2022/11/16 02:11:17;;;;;;;52.40;36.80;;;;;;;10.91;73.23;98157.75;226203;1241;140101;-64
2022/11/16 02:16:42;;;;;;;60.30;39.80;;;;;;;10.94;73.47;98139.08;226323;1255;138699;-63
2022/11/16 02:21:56;;;;;;;58.10;39.00;;;;;;;10.91;73.04;98131.17;226439;1250;138978;-62
2022/11/16 02:27:13;;;;;;;50.50;35.70;;;;;;;10.87;73.21;98132.17;227487;1237;139014;-64
2022/11/16 02:32:38;;;;;;;57.90;37.20;;;;;;;10.86;73.05;98126.00;226596;1244;139415;-63
2022/11/16 02:38:00;;;;;;;61.10;38.10;;;;;;;10.90;72.99;98123.07;226634;1240;140574;-64
2022/11/16 02:43:09;;;;;;;53.40;36.90;;;;;;;10.94;72.79;98120.07;226490;1237;139833;-64
2022/11/16 02:48:21;;;;;;;60.60;38.70;;;;;;;10.93;72.83;98110.75;226636;1241;139521;-64
2022/11/16 02:53:24;;;;;;;58.80;38.60;;;;;;;10.94;73.11;98107.69;226606;1252;139487;-64
2022/11/16 02:58:28;;;;;;;56.80;38.40;;;;;;;10.90;72.88;98095.89;226640;1243;139304;-65
2022/11/16 03:03:48;;;;;;;54.80;35.40;;;;;;;10.85;73.00;98095.60;227626;1242;139509;-65
2022/11/16 03:09:01;;;;;;;60.40;37.00;;;;;;;10.80;72.91;98093.86;226323;1240;139347;-65
2022/11/16 03:14:10;;;;;;;57.30;38.40;;;;;;;10.78;72.93;98092.60;226587;1243;140226;-67
2022/11/16 03:19:20;;;;;;;60.00;39.50;;;;;;;10.78;72.90;98090.83;226788;1244;138894;-67
2022/11/16 03:24:24;;;;;;;59.00;38.80;;;;;;;10.76;72.85;98088.83;227578;1241;140179;-69
2022/11/16 03:29:53;;;;;;;61.90;40.50;;;;;;;10.73;73.03;98092.47;226608;1244;139375;-66
2022/11/16 03:35:04;;;;;;;57.90;39.10;;;;;;;10.66;73.37;98091.57;226751;1244;138812;-66
2022/11/16 03:40:10;;;;;;;61.70;37.20;;;;;;;10.61;73.35;98086.41;226250;1251;139898;-64
2022/11/16 03:45:15;;;;;;;56.70;37.80;;;;;;;10.63;73.95;98087.00;226290;1251;139544;-65
2022/11/16 03:50:18;;;;;;;59.70;38.90;;;;;;;10.65;73.65;98081.89;226385;1243;139118;-65
2022/11/16 03:55:22;;;;;;;59.50;38.70;;;;;;;10.66;73.58;98078.96;226616;1233;139466;-64
2022/11/16 04:00:25;;;;;;;54.60;36.60;;;;;;;10.66;74.30;98074.19;226353;1251;140228;-64
2022/11/16 04:37:52;;;;;;;57.90;40.20;;;;;;;10.79;73.55;98046.39;226444;1249;138848;-63
2022/11/16 04:43:05;;;;;;;52.60;37.90;;;;;;;10.73;73.97;98044.23;226442;1250;139296;-63
2022/11/16 04:48:11;;;;;;;53.10;36.80;;;;;;;10.69;73.91;98048.63;226414;1234;138801;-62
2022/11/16 04:53:15;;;;;;;51.60;36.30;;;;;;;10.65;74.26;98043.59;226354;1250;139702;-64
2022/11/16 04:58:21;;;;;;;49.80;35.20;;;;;;;10.63;74.36;98042.31;226279;1250;139491;-63
2022/11/16 05:03:25;;;;;;;96.20;65.00;;;;;;;10.66;74.48;98039.61;226410;1250;139550;-63
2022/11/16 05:08:28;;;;;;;56.50;38.10;;;;;;;10.70;74.61;98042.31;226331;1248;138817;-64
2022/11/16 05:13:31;;;;;;;55.90;38.70;;;;;;;10.75;74.32;98034.29;226398;1249;139423;-63
2022/11/16 05:18:35;;;;;;;57.10;39.10;;;;;;;10.73;74.11;98034.41;226288;1240;139417;-63
2022/11/16 05:29:04;;;;;;;67.20;42.00;;;;;;;10.75;74.63;98021.70;226305;1244;139570;-64
2022/11/16 05:34:08;;;;;;;59.50;40.80;;;;;;;10.78;74.22;98020.04;227645;1242;139960;-63
2022/11/16 05:39:11;;;;;;;63.50;42.50;;;;;;;10.77;73.81;98021.58;226408;1233;140499;-63
2022/11/16 05:44:16;;;;;;;147.30;103.00;;;;;;;10.76;73.99;98022.65;227366;1219;138894;-63
2022/11/16 05:49:19;;;;;;;76.10;49.20;;;;;;;10.78;73.79;98021.98;226444;1229;139985;-62
2022/11/16 05:54:25;;;;;;;63.60;42.80;;;;;;;10.76;73.76;98017.91;226413;1241;138956;-64
2022/11/16 05:59:28;;;;;;;62.60;43.60;;;;;;;10.68;73.79;98017.98;226384;1243;138771;-64
2022/11/16 06:04:33;;;;;;;57.40;40.30;;;;;;;10.62;73.56;98013.64;226291;1239;140015;-62
2022/11/16 06:09:36;;;;;;;60.10;40.40;;;;;;;10.58;74.12;98003.30;226400;1234;140465;-62
2022/11/16 06:14:48;;;;;;;62.00;41.00;;;;;;;10.61;73.91;98000.42;226294;1243;140345;-62
2022/11/16 06:19:51;;;;;;;61.60;41.40;;;;;;;10.63;73.80;98002.06;226208;1244;139868;-62
2022/11/16 06:24:54;;;;;;;64.80;41.60;;;;;;;10.62;73.37;98010.66;226525;1241;140045;-63
2022/11/16 06:29:57;;;;;;;67.40;46.70;;;;;;;10.58;73.74;98009.38;227348;1231;139335;-62
2022/11/16 06:35:01;;;;;;;55.20;39.60;;;;;;;10.53;73.32;98006.92;226119;1238;139465;-62
2022/11/16 06:40:05;;;;;;;59.70;39.00;;;;;;;10.47;73.49;98005.10;226252;1251;138852;-62
2022/11/16 06:45:10;;;;;;;56.80;37.50;;;;;;;10.46;73.46;98001.27;226197;1235;140057;-64
2022/11/16 06:50:20;;;;;;;61.90;38.50;;;;;;;10.48;73.51;97998.08;226280;1237;139480;-67
2022/11/16 06:55:23;;;;;;;81.10;42.10;;;;;;;10.52;73.58;97991.41;226187;1234;138903;-65
2022/11/16 07:00:27;;;;;;;84.00;42.20;;;;;;;10.52;73.35;97987.65;226215;1229;139284;-65
2022/11/16 07:05:32;;;;;;;333.70;221.20;;;;;;;10.54;73.81;97981.67;226279;1238;139534;-66
2022/11/16 07:10:36;;;;;;;62.00;37.50;;;;;;;10.56;73.23;97983.27;226301;1249;139687;-64
2022/11/16 07:15:40;;;;;;;56.50;38.10;;;;;;;10.54;73.24;97980.73;226181;1236;140967;-65
2022/11/16 07:20:44;;;;;;;54.40;37.40;;;;;;;10.57;72.85;97972.93;227487;1231;141302;-64
2022/11/16 07:25:47;;;;;;;59.70;38.60;;;;;;;10.56;73.05;97969.77;226290;1236;138697;-70
2022/11/16 07:31:04;;;;;;;59.30;38.40;;;;;;;10.53;72.88;97966.33;227629;1229;139025;-62
2022/11/16 07:36:13;;;;;;;54.80;37.20;;;;;;;10.47;73.20;97968.91;227602;1242;140133;-63
2022/11/16 07:41:18;;;;;;;261.00;163.30;;;;;;;10.46;73.30;97963.16;227684;1234;139311;-62
2022/11/16 07:46:27;;;;;;;53.10;34.70;;;;;;;10.49;73.52;97963.83;226135;1251;139619;-63
2022/11/16 07:51:49;;;;;;;50.00;33.50;;;;;;;10.49;73.23;97966.48;226337;1238;140016;-62
2022/11/16 07:57:08;;;;;;;50.80;32.60;;;;;;;10.50;72.75;97967.98;226367;1249;139201;-64
2022/11/16 08:02:14;;;;;;;44.60;29.10;;;;;;;10.46;72.81;97972.73;226304;1240;138959;-63
2022/11/16 08:07:18;;;;;;;38.70;26.30;;;;;;;10.39;72.74;97979.66;226352;1237;140041;-62
2022/11/16 08:12:26;;;;;;;37.90;26.20;;;;;;;10.27;72.25;97983.57;227564;1230;139937;-64
2022/11/16 08:17:29;;;;;;;37.40;24.50;;;;;;;10.18;72.17;97992.27;226297;1235;139093;-64
2022/11/16 08:22:32;;;;;;;31.50;21.60;;;;;;;10.06;71.87;97987.09;226324;1236;138592;-62
2022/11/16 08:27:36;;;;;;;32.10;20.90;;;;;;;9.95;71.84;97986.92;226506;1236;139932;-61
2022/11/16 08:32:42;;;;;;;29.40;19.40;;;;;;;9.88;71.98;97980.86;226596;1234;139857;-61
2022/11/16 08:37:45;;;;;;;30.50;19.70;;;;;;;9.89;71.90;97976.39;226256;1243;140062;-62
2022/11/16 08:43:24;;;;;;;25.50;17.80;;;;;;;9.88;71.65;97983.41;226489;1251;139169;-62
2022/11/16 08:48:28;;;;;;;27.40;17.50;;;;;;;9.82;71.79;97985.77;226437;1237;139599;-62
2022/11/16 08:53:32;;;;;;;25.50;16.70;;;;;;;9.77;71.98;97978.58;227361;1243;138924;-62
2022/11/16 08:58:35;;;;;;;22.30;15.10;;;;;;;9.74;71.62;97983.94;226344;1250;138761;-62
2022/11/16 09:03:39;;;;;;;19.80;13.90;;;;;;;9.68;71.58;97990.39;226317;1234;139569;-62
2022/11/16 09:08:44;;;;;;;19.70;14.10;;;;;;;9.59;71.61;97998.84;226427;1241;138627;-61
2022/11/16 09:13:49;;;;;;;20.90;14.10;;;;;;;9.55;72.06;97994.52;226554;1248;139625;-61
2022/11/16 09:18:53;;;;;;;15.40;11.60;;;;;;;9.57;72.29;97991.38;227592;1227;139298;-62
2022/11/16 09:23:57;;;;;;;15.40;11.40;;;;;;;9.61;72.07;97976.38;226336;1244;140684;-63
2022/11/16 09:29:03;;;;;;;13.40;9.90;;;;;;;9.61;71.65;97968.61;226289;1236;138867;-66
2022/11/16 09:34:06;;;;;;;15.40;10.60;;;;;;;9.61;71.87;97959.23;226392;1244;139057;-64
2022/11/16 09:39:13;;;;;;;20.50;10.40;;;;;;;9.59;72.06;97952.59;226385;1251;139512;-65
2022/11/16 09:44:44;;;;;;;17.50;8.90;;;;;;;9.52;71.88;97950.37;226238;1249;138602;-65
2022/11/16 09:49:55;;;;;;;12.40;7.50;;;;;;;9.46;72.22;97951.12;226410;1237;138486;-64
2022/11/16 09:55:19;;;;;;;9.00;7.20;;;;;;;9.47;72.07;97943.23;226564;1243;139234;-64
2022/11/16 10:00:22;;;;;;;10.00;7.30;;;;;;;9.52;72.39;97937.41;226372;1229;138349;-64
2022/11/16 10:05:37;;;;;;;10.30;7.20;;;;;;;9.55;72.17;97923.72;226438;1244;139600;-64
2022/11/16 10:10:51;;;;;;;11.10;7.60;;;;;;;9.56;72.15;97913.61;226297;1237;138453;-64
2022/11/16 10:16:13;;;;;;;8.20;6.70;;;;;;;9.56;72.04;97909.81;226458;1226;139155;-63
2022/11/16 10:21:37;;;;;;;8.80;6.60;;;;;;;9.57;72.23;97900.54;226429;1227;138716;-63
2022/11/16 10:26:40;;;;;;;48.50;33.30;;;;;;;9.62;72.65;97895.17;226325;1235;138341;-63
2022/11/16 10:31:57;;;;;;;72.30;48.80;;;;;;;9.67;72.08;97889.83;226261;1239;138802;-62
2022/11/16 10:37:02;;;;;;;11.90;7.80;;;;;;;9.72;72.32;97886.98;226342;1250;139678;-63
2022/11/16 10:42:12;;;;;;;7.80;6.10;;;;;;;9.74;71.88;97884.60;226297;1250;139477;-63
2022/11/16 10:47:21;;;;;;;227.70;155.20;;;;;;;9.78;71.64;97881.64;226364;1247;138664;-63
2022/11/16 10:52:24;;;;;;;10.60;7.20;;;;;;;9.82;71.84;97877.20;226234;1243;139413;-62
2022/11/16 10:58:01;;;;;;;7.60;6.10;;;;;;;9.77;71.67;97874.20;227442;1241;139282;-64
2022/11/16 11:03:04;;;;;;;10.00;6.60;;;;;;;9.71;71.72;97876.08;226334;1243;138869;-62
2022/11/16 11:08:11;;;;;;;14.00;9.50;;;;;;;9.69;71.87;97872.17;227556;1228;138185;-63
2022/11/16 11:13:25;;;;;;;8.70;6.20;;;;;;;9.61;71.75;97874.20;227692;1242;138524;-63
2022/11/16 11:18:28;;;;;;;8.90;5.80;;;;;;;9.56;72.18;97877.75;226366;1232;139693;-63
2022/11/16 11:23:47;;;;;;;7.80;5.00;;;;;;;9.57;72.12;97875.92;226316;1250;138704;-62
2022/11/16 11:28:51;;;;;;;5.80;4.90;;;;;;;9.59;72.16;97875.57;226450;1250;139914;-62
2022/11/16 11:33:59;;;;;;;6.90;5.30;;;;;;;9.57;72.17;97873.45;226394;1248;138496;-62
2022/11/16 11:39:24;;;;;;;8.20;5.90;;;;;;;9.55;71.94;97871.53;226419;1239;138357;-63
2022/11/16 11:44:35;;;;;;;7.00;5.20;;;;;;;9.49;72.29;97875.65;226365;1239;139408;-62
2022/11/16 11:49:48;;;;;;;8.70;5.50;;;;;;;9.46;72.44;97872.66;227477;1244;138510;-63
2022/11/16 11:54:54;;;;;;;5.40;4.00;;;;;;;9.43;72.47;97872.55;227603;1234;138651;-63
2022/11/16 11:59:57;;;;;;;;;;;;;;;9.43;72.61;97865.63;226437;1251;140059;-63
2022/11/16 12:05:37;;;;;;;5.40;4.40;;;;;;;9.47;72.74;97862.86;226502;1247;128127;-62
2022/11/16 12:10:45;;;;;;;8.90;4.70;;;;;;;9.55;72.62;97862.09;226423;1237;138646;-62
2022/11/16 12:15:56;;;;;;;7.20;5.20;;;;;;;9.57;72.39;97857.02;227410;1238;139833;-62
2022/11/16 12:21:46;;;;;;;8.40;5.80;;;;;;;9.57;72.46;97855.90;226488;1251;138769;-62
2022/11/16 12:27:14;;;;;;;5.70;4.60;;;;;;;9.53;72.37;97845.59;225587;1254;138341;-63
2022/11/16 12:32:30;;;;;;;4.80;4.00;;;;;;;9.48;72.29;97843.67;226222;1238;139221;-62
2022/11/16 12:37:39;;;;;;;5.40;4.00;;;;;;;9.48;72.54;97841.21;226531;1240;138489;-62
2022/11/16 12:43:04;;;;;;;5.50;3.80;;;;;;;9.46;72.26;97835.32;226657;1237;139094;-63
2022/11/16 12:48:35;;;;;;;201.50;137.10;;;;;;;9.60;73.96;97839.45;226152;1237;139420;-63
2022/11/16 12:54:12;;;;;;;6.70;4.00;;;;;;;9.96;72.54;97834.13;227287;1242;138727;-62
2022/11/16 12:59:21;;;;;;;;;;;;;;;9.83;71.99;97836.35;226347;1251;138944;-62
2022/11/16 13:04:31;;;;;;;4.60;3.00;;;;;;;9.73;71.65;97830.64;226605;1240;124551;-62
2022/11/16 13:09:38;;;;;;;4.30;3.00;;;;;;;9.62;71.71;97829.02;226445;1251;138924;-62
2022/11/16 13:14:45;;;;;;;4.60;3.20;;;;;;;9.53;71.84;97827.60;226415;1251;138483;-62
2022/11/16 13:20:27;;;;;;;3.50;2.90;;;;;;;9.44;71.73;97826.98;226480;1237;138813;-62
2022/11/16 13:25:45;;;;;;;3.70;2.70;;;;;;;9.42;72.19;97827.48;226533;1249;139302;-62
2022/11/16 13:30:48;;;;;;;5.70;2.90;;;;;;;9.45;72.08;97828.14;227570;1234;139115;-62
2022/11/16 13:35:51;;;;;;;4.40;3.10;;;;;;;9.46;71.89;97826.28;227409;1233;138503;-62
2022/11/16 13:41:30;;;;;;;3.40;2.80;;;;;;;9.46;72.10;97827.03;226386;1251;139186;-62
2022/11/16 13:46:54;;;;;;;5.10;3.10;;;;;;;9.41;72.09;97826.52;226541;1249;139053;-61
2022/11/16 13:52:02;;;;;;;4.50;2.90;;;;;;;9.37;71.95;97822.76;226418;1235;139165;-62
2022/11/16 13:57:28;;;;;;;;;;;;;;;9.33;71.84;97818.45;226646;1241;139198;-61
2022/11/16 14:02:40;;;;;;;4.70;2.10;;;;;;;9.27;71.87;97815.94;226580;1244;125703;-62
2022/11/16 14:07:48;;;;;;;4.20;2.30;;;;;;;9.18;71.82;97815.39;226364;1238;138389;-62
2022/11/16 14:12:55;;;;;;;3.30;2.40;;;;;;;9.16;72.14;97819.75;227746;1244;139284;-62
2022/11/16 14:18:07;;;;;;;22.20;19.20;;;;;;;9.19;72.24;97817.92;226384;1234;139132;-63
2022/11/16 14:23:33;;;;;;;16.60;12.50;;;;;;;9.29;72.91;97812.23;227551;1237;139372;-64
2022/11/16 14:28:49;;;;;;;4.30;3.10;;;;;;;9.40;71.97;97811.02;226406;1252;138849;-65
2022/11/16 14:33:56;;;;;;;4.20;2.80;;;;;;;9.28;71.63;97808.98;226275;1244;138212;-65
2022/11/16 14:39:22;;;;;;;2.90;2.40;;;;;;;9.16;71.67;97812.16;226308;1245;138840;-65
2022/11/16 14:44:30;;;;;;;3.20;2.40;;;;;;;9.10;71.86;97812.48;226379;1240;138450;-63
2022/11/16 14:49:36;;;;;;;3.50;2.30;;;;;;;9.05;72.01;97806.48;226371;1251;138855;-62
2022/11/16 14:54:56;;;;;;;2.50;2.20;;;;;;;9.06;71.79;97806.34;226415;1238;139246;-64
2022/11/16 15:00:17;;;;;;;365.80;250.20;;;;;;;9.11;71.88;97800.84;226282;1232;139382;-62
2022/11/16 15:05:42;;;;;;;5.70;3.80;;;;;;;9.20;72.00;97804.61;226328;1238;140264;-65
2022/11/16 15:10:46;;;;;;;3.50;2.80;;;;;;;9.20;71.67;97806.52;226376;1244;151672;-63
2022/11/16 15:16:16;;;;;;;4.40;2.90;;;;;;;9.15;71.70;97803.88;226444;1248;138547;-64
2022/11/16 15:21:21;;;;;;;3.70;2.90;;;;;;;9.10;71.74;97808.34;227428;1242;139750;-65
2022/11/16 15:26:24;;;;;;;4.50;3.10;;;;;;;9.05;72.13;97807.31;226314;1240;138995;-63
2022/11/16 15:31:27;;;;;;;76.90;51.50;;;;;;;9.04;72.38;97805.09;226412;1240;138530;-63
2022/11/16 15:36:37;;;;;;;157.70;102.80;;;;;;;9.12;72.56;97798.83;226627;1250;139285;-64
2022/11/16 15:41:41;;;;;;;5.20;4.00;;;;;;;9.23;72.48;97800.61;227827;1232;139598;-64
2022/11/16 15:46:48;;;;;;;5.10;3.70;;;;;;;9.22;72.01;97800.51;227630;1242;138149;-65
2022/11/16 15:51:51;;;;;;;5.90;3.20;;;;;;;9.21;71.82;97800.64;226899;1233;138490;-65
2022/11/16 15:57:03;;;;;;;4.00;2.80;;;;;;;9.19;71.94;97794.45;226868;1238;138694;-65
2022/11/16 16:02:17;;;;;;;4.10;3.10;;;;;;;9.11;71.73;97790.23;226921;1241;138872;-64
2022/11/16 16:07:41;;;;;;;6.00;4.00;;;;;;;9.08;71.94;97788.50;227837;1248;138984;-64
2022/11/16 16:12:52;;;;;;;4.30;3.00;;;;;;;8.99;71.98;97792.05;227021;1238;138523;-64
2022/11/16 16:17:57;;;;;;;12.30;8.80;;;;;;;9.01;72.37;97791.50;226931;1254;139484;-64
2022/11/16 16:23:06;;;;;;;2.90;2.40;;;;;;;9.05;71.77;97793.73;227761;1241;139499;-66
2022/11/16 16:28:10;;;;;;;3.30;2.70;;;;;;;9.05;71.47;97793.87;226942;1241;138295;-63
2022/11/16 16:33:18;;;;;;;5.00;2.80;;;;;;;9.01;71.47;97799.86;226959;1238;138770;-62
2022/11/16 16:38:21;;;;;;;3.80;2.80;;;;;;;8.95;71.42;97798.91;227784;1234;138231;-63
2022/11/16 16:43:26;;;;;;;4.10;3.10;;;;;;;8.91;71.53;97801.48;226868;1248;138517;-63
2022/11/16 16:48:29;;;;;;;2.60;1.90;;;;;;;8.85;71.53;97801.41;226812;1253;138561;-62
2022/11/16 16:53:32;;;;;;;3.50;2.20;;;;;;;8.75;71.41;97797.23;227779;1232;138286;-65
2022/11/16 16:58:35;;;;;;;3.30;2.30;;;;;;;8.67;71.59;97798.81;227005;1234;138753;-63
2022/11/16 17:03:38;;;;;;;3.60;2.30;;;;;;;8.67;71.52;97801.51;226880;1249;139427;-63
2022/11/16 17:08:41;;;;;;;2.30;2.00;;;;;;;8.69;71.49;97803.14;226807;1244;139436;-65
2022/11/16 17:13:44;;;;;;;2.90;2.00;;;;;;;8.67;71.13;97802.54;226809;1249;138854;-61
2022/11/16 17:18:53;;;;;;;5.40;2.00;;;;;;;8.63;71.06;97800.42;227958;1245;139080;-64
2022/11/16 17:23:57;;;;;;;2.90;2.30;;;;;;;8.56;71.42;97802.36;226905;1243;138795;-66
2022/11/16 17:29:00;;;;;;;322.80;241.80;;;;;;;8.86;75.81;97807.37;226913;1234;139284;-62
2022/11/16 17:34:03;;;;;;;3.60;2.80;;;;;;;9.01;71.79;97807.44;227776;1241;138918;-63
2022/11/16 17:39:11;;;;;;;4.20;2.20;;;;;;;8.84;70.52;97812.11;226978;1253;139205;-64
2022/11/16 17:44:16;;;;;;;3.70;2.60;;;;;;;8.64;70.27;97813.58;226975;1234;138325;-64
2022/11/16 17:49:23;;;;;;;3.30;2.10;;;;;;;8.51;70.33;97818.80;226873;1240;138368;-67
2022/11/16 17:54:27;;;;;;;3.80;2.20;;;;;;;8.44;70.47;97821.23;226957;1233;138704;-64
2022/11/16 17:59:30;;;;;;;4.50;2.10;;;;;;;8.33;70.01;97820.04;227074;1245;138443;-61
2022/11/16 18:04:33;;;;;;;3.20;2.40;;;;;;;8.21;70.22;97821.25;227057;1250;138715;-63
2022/11/16 18:09:36;;;;;;;27.20;13.40;;;;;;;8.18;71.66;97822.89;226775;1233;138626;-64
2022/11/16 18:14:39;;;;;;;5.50;2.30;;;;;;;8.14;70.56;97819.66;226965;1241;139924;-65
2022/11/16 18:19:44;;;;;;;4.50;2.50;;;;;;;8.05;70.42;97820.68;226924;1251;139462;-66
2022/11/16 18:24:49;;;;;;;3.30;2.20;;;;;;;7.99;70.58;97820.38;227896;1227;138772;-62
2022/11/16 18:29:52;;;;;;;3.40;2.30;;;;;;;7.96;70.52;97817.39;226987;1238;140436;-64
2022/11/16 18:34:55;;;;;;;12.20;8.60;;;;;;;7.96;70.82;97818.64;226936;1249;139283;-63
2022/11/16 18:39:58;;;;;;;3.80;2.50;;;;;;;7.90;70.28;97822.23;227818;1236;139505;-66
2022/11/16 18:45:01;;;;;;;3.40;2.40;;;;;;;7.78;70.49;97828.55;227556;1239;138213;-64
2022/11/16 18:50:09;;;;;;;3.20;2.40;;;;;;;7.70;70.32;97829.33;227043;1249;138640;-67
2022/11/16 18:55:20;;;;;;;165.70;120.70;;;;;;;7.64;70.88;97823.20;226882;1250;139181;-69
2022/11/16 19:00:23;;;;;;;4.20;2.70;;;;;;;7.61;70.72;97828.21;225830;1233;139643;-63
2022/11/16 19:05:27;;;;;;;3.10;2.30;;;;;;;7.55;70.39;97832.45;225143;1233;138726;-64
2022/11/16 19:10:36;;;;;;;3.80;2.30;;;;;;;7.53;70.35;97829.11;225062;1230;138653;-65
2022/11/16 19:15:40;;;;;;;3.50;2.60;;;;;;;7.49;70.05;97836.80;225084;1233;137718;-64
2022/11/16 19:20:44;;;;;;;3.30;2.20;;;;;;;7.44;70.05;97826.35;225207;1234;138252;-65
2022/11/16 19:25:59;;;;;;;3.10;2.50;;;;;;;7.33;69.87;97825.34;224870;1231;138310;-66
2022/11/16 19:31:08;;;;;;;8.60;6.50;;;;;;;7.32;72.13;97832.64;225424;1233;137901;-68
2022/11/16 19:36:18;;;;;;;3.90;2.60;;;;;;;7.26;70.06;97839.18;225151;1226;138152;-67
2022/11/16 19:41:22;;;;;;;3.90;2.80;;;;;;;7.05;69.79;97839.08;225096;1234;137947;-66
2022/11/16 19:46:28;;;;;;;3.70;2.40;;;;;;;6.88;69.88;97839.46;225055;1239;138255;-64
2022/11/16 19:51:32;;;;;;;3.90;2.40;;;;;;;6.78;70.16;97838.23;224834;1234;138064;-67
2022/11/16 19:56:35;;;;;;;4.10;2.70;;;;;;;6.75;70.38;97832.44;225019;1235;138799;-66
2022/11/16 20:01:38;;;;;;;3.80;2.20;;;;;;;6.75;70.07;97833.10;225236;1233;138219;-64
2022/11/16 20:06:43;;;;;;;9.60;6.20;;;;;;;6.80;71.13;97833.83;224942;1237;138485;-66
2022/11/16 20:11:48;;;;;;;4.80;2.80;;;;;;;6.81;70.40;97838.92;225079;1233;137967;-67
2022/11/16 20:16:52;;;;;;;4.00;2.50;;;;;;;6.71;70.29;97842.87;225124;1227;137903;-68
2022/11/16 20:21:58;;;;;;;4.50;2.60;;;;;;;6.68;70.42;97851.55;225155;1234;139877;-67
2022/11/16 20:27:02;;;;;;;4.30;3.00;;;;;;;6.58;70.55;97855.02;225028;1233;137781;-62
2022/11/16 20:32:05;;;;;;;3.70;2.30;;;;;;;6.52;70.68;97850.66;225216;1227;138299;-65
2022/11/16 20:37:09;;;;;;;4.90;2.70;;;;;;;6.50;70.79;97856.98;225223;1233;138511;-65
2022/11/16 20:42:13;;;;;;;3.90;2.30;;;;;;;6.46;70.73;97854.58;224868;1234;138707;-67
2022/11/16 20:47:17;;;;;;;4.00;2.40;;;;;;;6.46;70.80;97851.45;224824;1227;139453;-67
2022/11/16 20:52:20;;;;;;;5.80;3.30;;;;;;;6.50;71.02;97855.19;225099;1234;139194;-66
2022/11/16 20:57:23;;;;;;;5.00;2.80;;;;;;;6.53;70.80;97853.43;225016;1233;137916;-66
2022/11/16 21:02:27;;;;;;;4.80;2.80;;;;;;;6.50;70.57;97843.36;225154;1233;138938;-67
2022/11/16 21:07:30;;;;;;;4.90;2.60;;;;;;;6.43;70.56;97842.23;225268;1233;138292;-65
2022/11/16 21:17:57;;;;;;;4.40;2.70;;;;;;;6.26;70.81;97836.11;225178;1233;137703;-63
2022/11/16 21:23:02;;;;;;;3.50;2.30;;;;;;;6.22;70.93;97835.84;225237;1233;137937;-66
2022/11/16 21:28:06;;;;;;;3.60;2.40;;;;;;;6.20;71.13;97825.41;225148;1233;138145;-66
2022/11/16 21:33:09;;;;;;;2.90;2.30;;;;;;;6.18;71.25;97828.02;225189;1233;138648;-66
2022/11/16 21:38:13;;;;;;;3.20;2.40;;;;;;;6.21;71.24;97827.82;224939;1233;138507;-65
2022/11/16 21:43:17;;;;;;;3.40;2.30;;;;;;;6.26;71.10;97828.39;225239;1234;138218;-65
2022/11/16 21:48:20;;;;;;;3.60;2.00;;;;;;;6.25;70.75;97823.15;224955;1233;138395;-67
2022/11/16 21:53:25;;;;;;;3.30;1.90;;;;;;;6.28;70.75;97816.45;225196;1233;138795;-69
2022/11/16 21:58:28;;;;;;;4.90;2.50;;;;;;;6.28;70.72;97820.34;225204;1233;138745;-66
2022/11/16 22:03:32;;;;;;;3.60;2.20;;;;;;;6.21;70.56;97824.63;225315;1233;137817;-64
2022/11/16 22:08:39;;;;;;;3.60;2.30;;;;;;;6.17;70.90;97831.05;225135;1233;138250;-65
2022/11/16 22:13:43;;;;;;;2.90;1.90;;;;;;;6.15;71.11;97832.06;227213;1238;139018;-63
2022/11/16 22:18:46;;;;;;;3.00;1.90;;;;;;;6.12;71.24;97831.88;227051;1242;138250;-66
2022/11/16 22:23:49;;;;;;;3.00;2.00;;;;;;;6.12;71.04;97833.69;227186;1234;138865;-64
2022/11/16 22:28:52;;;;;;;4.90;2.10;;;;;;;6.16;70.96;97833.02;227105;1234;138672;-63
2022/11/16 22:33:55;;;;;;;3.20;2.00;;;;;;;6.20;70.62;97828.60;227128;1248;139180;-64
2022/11/16 22:38:59;;;;;;;2.40;1.80;;;;;;;6.22;70.70;97829.20;227808;1226;139134;-64
2022/11/16 22:44:02;;;;;;;2.90;1.80;;;;;;;6.23;70.28;97831.59;227112;1234;138539;-63
2022/11/16 22:49:05;;;;;;;2.80;1.80;;;;;;;6.18;70.27;97836.46;227194;1234;138290;-63
2022/11/16 22:54:10;;;;;;;2.10;1.50;;;;;;;6.16;70.30;97837.95;226984;1249;139136;-62
2022/11/16 22:59:13;;;;;;;2.00;1.50;;;;;;;6.12;70.14;97833.12;227093;1233;137915;-65
2022/11/16 23:04:16;;;;;;;2.90;1.70;;;;;;;6.08;70.10;97833.58;227045;1228;138152;-64
2022/11/16 23:09:19;;;;;;;2.00;1.60;;;;;;;6.05;70.22;97833.58;227079;1234;138515;-65
2022/11/16 23:30:32;;;;;;;2.00;1.50;;;;;;;6.14;69.96;97817.34;227676;1226;137979;-64
2022/11/16 23:35:35;;;;;;;2.40;1.50;;;;;;;6.13;70.04;97816.85;226455;1251;138245;-65
2022/11/16 23:40:38;;;;;;;3.40;1.90;;;;;;;6.10;70.22;97814.05;227565;1240;138353;-67
2022/11/16 23:45:42;;;;;;;3.80;1.90;;;;;;;6.07;69.98;97809.66;226370;1243;138135;-63
2022/11/16 23:50:45;;;;;;;1.40;1.30;;;;;;;6.02;69.99;97803.13;226203;1228;137944;-64
2022/11/16 23:55:48;;;;;;;1.70;1.10;;;;;;;5.97;69.99;97799.63;226222;1251;138498;-65
